KMSV Airport (Sullivan County Intl) Information

FAA: MSV - ICAO: KMSV

KMSV Airport Location

State New York
County Sullivan
City Monticello
KMSV Airport is 6 miles northwest of Monticello, NY.
Latitude 41-42-05.9000N
Longitude 074-47-42.1000W
Elevation 1,403ft

KMSV Airport METARs

METAR KMSV 262214Z AUTO 29019G33KT 10SM -SN BKN024 BKN030 OVC038 M01/M05 A2962 RMK AO2 PK WND 28033/2209 P0000 FZRANO
Altimeter 29.62"
Temperature -1.0°C (30.2°F)
Wind 290° at 19KT with gusts to 33KT
Clouds broken at 2,400ft broken at 3,000ft overcast at 3,800ft
Visibility 10.0mi
Time observed: 2021-11-26T22:14:00Z

KMSV Airport Details

Status Operational
Activation N/A
Ownership Public
Usage Public
Chart NEW YORK
ATC on-site No
Beacon schedule sunset-sunrise
Beacon color clear green

KMSV Airport Contacts

Owner SULLIVAN COUNTY DPW
Owner address 100 NORTH ST, MONTICELLO, NY 12701
Owner phone (845) 807-0326
Manager KEVIN E DILLER
Manager address 47-59 49TH ST, WOODSIDE, NY 11377
Manager phone 718-937-1170

KMSV Airport (Sullivan County Intl) Radio Frequencies

KMSV (Airport) Radio Frequencies

UNICOM 122.8
Common traffic advisory frequency (CTAF) 122.8